createdAt,value
2018-07-08T00:00:25.114Z,17.54
2018-07-08T00:02:53.307Z,17.73
2018-07-08T00:05:21.007Z,17.49
2018-07-08T00:07:48.668Z,17.34
2018-07-08T00:10:17.432Z,17.27
2018-07-08T00:12:45.187Z,17.30
2018-07-08T00:15:12.935Z,17.15
2018-07-08T00:17:40.661Z,17.17
2018-07-08T00:20:08.432Z,17.20
2018-07-08T00:22:36.736Z,17.17
2018-07-08T00:25:04.547Z,17.05
2018-07-08T00:27:32.314Z,17.28
2018-07-08T00:30:00.072Z,16.96
2018-07-08T00:32:27.751Z,17.11
2018-07-08T00:34:55.438Z,17.05
2018-07-08T00:37:23.495Z,17.19
2018-07-08T00:39:51.200Z,16.80
2018-07-08T00:42:18.891Z,16.87
2018-07-08T00:44:46.608Z,16.84
2018-07-08T00:47:14.303Z,16.75
2018-07-08T00:49:42.010Z,16.66
2018-07-08T00:52:10.031Z,16.55
2018-07-08T00:54:37.735Z,16.47
2018-07-08T00:57:05.476Z,16.53
2018-07-08T00:59:33.194Z,16.51
2018-07-08T01:02:01.388Z,16.67
2018-07-08T01:04:29.246Z,16.74
2018-07-08T01:06:57.027Z,16.68
2018-07-08T01:09:24.715Z,16.61
2018-07-08T01:11:52.465Z,16.35
2018-07-08T01:14:20.608Z,16.36
2018-07-08T01:16:48.454Z,16.19
2018-07-08T01:19:16.354Z,16.17
2018-07-08T01:21:44.445Z,16.15
2018-07-08T01:24:12.132Z,16.08
2018-07-08T01:26:39.838Z,16.21
2018-07-08T01:29:07.663Z,16.13
2018-07-08T01:31:35.400Z,16.13
2018-07-08T01:34:03.187Z,16.13
2018-07-08T01:36:30.869Z,16.09
2018-07-08T01:38:58.593Z,16.11
2018-07-08T01:41:26.301Z,16.04
2018-07-08T01:43:54.039Z,16.08
2018-07-08T01:46:21.990Z,16.11
2018-07-08T01:48:49.758Z,16.05
2018-07-08T01:51:17.491Z,15.97
2018-07-08T01:53:45.302Z,16.21
2018-07-08T01:56:13.006Z,16.25
2018-07-08T01:58:40.934Z,16.04
2018-07-08T02:01:08.729Z,15.89
2018-07-08T02:03:36.493Z,15.90
2018-07-08T02:06:04.308Z,15.80
2018-07-08T02:08:32.105Z,15.78
2018-07-08T02:10:59.838Z,15.82
2018-07-08T02:13:27.652Z,15.80
2018-07-08T02:15:55.477Z,15.63
2018-07-08T02:18:23.248Z,15.66
2018-07-08T02:20:51.055Z,15.61
2018-07-08T02:23:18.806Z,15.69
2018-07-08T02:25:46.474Z,15.53
2018-07-08T02:28:14.286Z,15.43
2018-07-08T02:30:42.044Z,15.68
2018-07-08T02:33:09.831Z,15.70
2018-07-08T02:35:37.705Z,15.42
2018-07-08T02:38:05.461Z,15.34
2018-07-08T02:40:33.187Z,15.28
2018-07-08T02:43:01.318Z,15.54
2018-07-08T02:45:29.028Z,15.47
2018-07-08T02:47:56.912Z,15.42
2018-07-08T02:50:24.727Z,15.07
2018-07-08T02:52:52.749Z,15.18
2018-07-08T02:55:20.450Z,15.21
2018-07-08T02:57:48.141Z,14.94
2018-07-08T03:00:15.827Z,14.76
2018-07-08T03:02:43.604Z,14.87
2018-07-08T03:05:11.283Z,14.81
2018-07-08T03:07:39.010Z,14.88
2018-07-08T03:10:06.776Z,15.08
2018-07-08T03:12:34.466Z,15.04
2018-07-08T03:15:02.179Z,15.15
2018-07-08T03:17:29.887Z,15.02
2018-07-08T03:19:57.622Z,15.00
2018-07-08T03:22:25.363Z,14.83
2018-07-08T03:24:53.114Z,14.69
2018-07-08T03:27:20.799Z,14.68
2018-07-08T03:29:48.502Z,14.67
2018-07-08T03:32:16.238Z,14.86
2018-07-08T03:34:44.055Z,14.87
2018-07-08T03:37:11.731Z,14.96
2018-07-08T03:39:39.459Z,15.04
2018-07-08T03:42:07.610Z,15.13
2018-07-08T03:44:35.283Z,14.89
2018-07-08T03:47:03.078Z,14.91
2018-07-08T03:49:30.785Z,14.81
2018-07-08T03:51:58.505Z,14.63
2018-07-08T03:54:28.948Z,14.59
2018-07-08T03:56:57.697Z,14.68
2018-07-08T03:59:26.114Z,14.64
2018-07-08T04:01:53.916Z,14.73
2018-07-08T04:04:21.909Z,14.67
2018-07-08T04:06:49.622Z,14.63
2018-07-08T04:09:18.946Z,14.62
2018-07-08T04:11:47.190Z,14.66
2018-07-08T04:14:14.906Z,14.68
2018-07-08T04:16:42.660Z,14.69
2018-07-08T04:19:10.330Z,14.56
2018-07-08T04:21:38.113Z,14.71
2018-07-08T04:24:05.814Z,14.87
2018-07-08T04:26:33.581Z,14.73
2018-07-08T04:29:01.256Z,14.84
2018-07-08T04:31:28.950Z,14.97
2018-07-08T04:33:56.778Z,15.16
2018-07-08T04:36:24.473Z,15.50
2018-07-08T04:38:52.246Z,15.58
2018-07-08T04:41:20.031Z,15.61
2018-07-08T04:43:47.743Z,15.43
2018-07-08T04:46:15.908Z,15.58
2018-07-08T04:48:44.234Z,15.74
2018-07-08T04:51:11.937Z,15.76
2018-07-08T04:53:39.682Z,15.87
2018-07-08T04:56:07.437Z,16.24
2018-07-08T04:58:35.158Z,16.42
2018-07-08T05:01:02.973Z,16.63
2018-07-08T05:03:30.743Z,16.89
2018-07-08T05:05:58.458Z,16.98
2018-07-08T05:08:26.150Z,17.03
2018-07-08T05:10:53.855Z,17.27
2018-07-08T05:13:21.627Z,17.39
2018-07-08T05:15:49.575Z,17.55
2018-07-08T05:18:17.279Z,17.63
2018-07-08T05:20:45.038Z,17.66
2018-07-08T05:23:12.766Z,17.75
2018-07-08T05:25:40.831Z,17.66
2018-07-08T05:28:08.567Z,17.69
2018-07-08T05:30:36.245Z,18.11
2018-07-08T05:33:04.023Z,18.49
2018-07-08T05:35:31.996Z,18.74
2018-07-08T05:37:59.782Z,19.05
2018-07-08T05:40:27.495Z,19.20
2018-07-08T05:42:55.212Z,19.57
2018-07-08T05:45:22.874Z,19.82
2018-07-08T05:47:50.610Z,20.01
2018-07-08T05:50:18.351Z,20.29
2018-07-08T05:52:46.018Z,20.20
2018-07-08T05:55:13.787Z,20.51
2018-07-08T05:57:41.462Z,20.78
2018-07-08T06:00:09.292Z,21.04
2018-07-08T06:02:37.022Z,21.19
2018-07-08T06:05:04.694Z,21.35
2018-07-08T06:07:32.410Z,21.33
2018-07-08T06:10:00.108Z,21.64
2018-07-08T06:12:27.906Z,21.95
2018-07-08T06:14:55.640Z,21.94
2018-07-08T06:17:23.994Z,22.09
2018-07-08T06:19:51.745Z,21.80
2018-07-08T06:22:19.581Z,22.09
2018-07-08T06:24:47.289Z,22.30
2018-07-08T06:27:14.992Z,22.47
2018-07-08T06:29:42.658Z,22.70
2018-07-08T06:32:10.409Z,22.85
2018-07-08T06:34:38.098Z,23.07
2018-07-08T06:37:05.835Z,23.14
2018-07-08T06:39:33.581Z,23.34
2018-07-08T06:42:01.272Z,23.69
2018-07-08T06:44:28.995Z,23.89
2018-07-08T06:46:56.683Z,24.21
2018-07-08T06:49:24.484Z,24.48
2018-07-08T06:51:52.185Z,24.84
2018-07-08T06:54:19.898Z,25.01
2018-07-08T06:56:47.618Z,24.89
2018-07-08T06:59:15.328Z,24.75
2018-07-08T07:01:43.049Z,25.18
2018-07-08T07:04:10.741Z,25.25
2018-07-08T07:06:39.144Z,25.38
2018-07-08T07:09:07.859Z,26.02
2018-07-08T07:11:35.578Z,26.64
2018-07-08T07:14:03.287Z,27.13
2018-07-08T07:16:30.965Z,27.18
2018-07-08T07:18:58.655Z,27.35
2018-07-08T07:21:26.463Z,27.59
2018-07-08T07:23:54.143Z,27.51
2018-07-08T07:26:21.997Z,27.68
2018-07-08T07:28:49.730Z,27.97
2018-07-08T07:31:17.541Z,27.93
2018-07-08T07:33:45.855Z,28.32
2018-07-08T07:36:13.608Z,28.66
2018-07-08T07:38:41.383Z,28.73
2018-07-08T07:41:09.070Z,28.92
2018-07-08T07:43:36.772Z,28.79
2018-07-08T07:46:04.791Z,28.82
2018-07-08T07:48:32.500Z,29.03
2018-07-08T07:51:00.274Z,29.11
2018-07-08T07:53:28.107Z,29.57
2018-07-08T07:55:56.517Z,29.18
2018-07-08T07:58:24.186Z,29.60
2018-07-08T08:00:51.915Z,30.43
2018-07-08T08:03:19.658Z,30.96
2018-07-08T08:05:47.411Z,30.96
2018-07-08T08:08:15.181Z,30.84
2018-07-08T08:10:43.047Z,31.36
2018-07-08T08:13:10.714Z,31.20
2018-07-08T08:15:38.433Z,31.04
2018-07-08T08:18:06.199Z,30.54
2018-07-08T08:20:33.969Z,31.53
2018-07-08T08:23:01.922Z,31.44
2018-07-08T08:25:29.707Z,31.34
2018-07-08T08:27:57.431Z,31.18
2018-07-08T08:30:25.171Z,30.87
2018-07-08T08:32:53.222Z,31.72
2018-07-08T08:35:20.966Z,32.11
2018-07-08T08:37:51.972Z,32.59
2018-07-08T08:40:20.926Z,32.68
2018-07-08T08:42:48.650Z,32.87
2018-07-08T08:45:17.378Z,33.11
2018-07-08T08:47:45.126Z,32.68
2018-07-08T08:50:13.331Z,33.55
2018-07-08T08:52:41.033Z,33.66
2018-07-08T08:55:09.983Z,33.95
2018-07-08T08:57:37.861Z,34.15
2018-07-08T09:00:07.268Z,33.79
2018-07-08T09:02:35.138Z,32.75
2018-07-08T09:05:02.943Z,32.87
2018-07-08T09:07:30.653Z,33.77
2018-07-08T09:09:58.346Z,33.94
2018-07-08T09:12:26.066Z,33.36
2018-07-08T09:14:53.790Z,33.68
2018-07-08T09:17:21.679Z,33.12
2018-07-08T09:19:49.377Z,32.61
2018-07-08T09:22:17.142Z,33.02
2018-07-08T09:24:44.903Z,33.08
2018-07-08T09:27:12.603Z,33.29
2018-07-08T09:29:40.386Z,33.99
2018-07-08T09:32:08.110Z,34.28
2018-07-08T09:34:35.819Z,34.63
2018-07-08T09:37:03.565Z,34.12
2018-07-08T09:39:31.310Z,33.29
2018-07-08T09:41:59.044Z,33.14
2018-07-08T09:44:26.854Z,33.79
2018-07-08T09:46:54.566Z,34.19
2018-07-08T09:49:22.310Z,34.44
2018-07-08T09:51:50.103Z,34.84
2018-07-08T09:54:17.876Z,34.67
2018-07-08T09:56:45.770Z,33.71
2018-07-08T09:59:13.513Z,33.83
2018-07-08T10:01:43.093Z,34.48
2018-07-08T10:04:12.330Z,34.05
2018-07-08T10:06:40.644Z,33.44
2018-07-08T10:09:10.059Z,33.98
2018-07-08T10:11:38.407Z,34.50
2018-07-08T10:14:07.863Z,34.10
2018-07-08T10:16:35.651Z,34.35
2018-07-08T10:19:03.412Z,34.46
2018-07-08T10:21:31.247Z,34.99
2018-07-08T10:23:58.947Z,34.76
2018-07-08T10:26:26.749Z,34.79
2018-07-08T10:28:54.534Z,34.65
2018-07-08T10:31:27.806Z,34.90
2018-07-08T10:33:56.837Z,35.87
2018-07-08T10:36:24.529Z,36.02
2018-07-08T10:38:52.246Z,36.46
2018-07-08T10:41:19.953Z,36.49
2018-07-08T10:43:47.711Z,36.40
2018-07-08T10:46:15.440Z,35.62
2018-07-08T10:48:43.203Z,34.89
2018-07-08T10:51:11.008Z,33.50
2018-07-08T10:53:38.781Z,31.99
2018-07-08T10:56:06.615Z,31.39
2018-07-08T10:58:34.539Z,31.04
2018-07-08T11:01:02.535Z,31.43
2018-07-08T11:03:30.590Z,31.51
2018-07-08T11:05:58.470Z,31.01
2018-07-08T11:08:26.273Z,30.84
2018-07-08T11:10:53.979Z,30.99
2018-07-08T11:13:22.560Z,31.09
2018-07-08T11:15:50.286Z,30.53
2018-07-08T11:18:18.007Z,30.58
2018-07-08T11:20:45.752Z,30.80
2018-07-08T11:23:13.479Z,30.38
2018-07-08T11:25:41.299Z,30.10
2018-07-08T11:28:09.730Z,30.23
2018-07-08T11:30:37.558Z,29.60
2018-07-08T11:33:05.488Z,29.13
2018-07-08T11:35:33.150Z,29.18
2018-07-08T11:38:00.947Z,29.26
2018-07-08T11:40:28.651Z,29.40
2018-07-08T11:42:56.408Z,29.06
2018-07-08T11:45:24.126Z,29.54
2018-07-08T11:47:52.173Z,29.49
2018-07-08T11:50:19.912Z,29.65
2018-07-08T11:52:47.758Z,29.77
2018-07-08T11:55:15.502Z,29.29
2018-07-08T11:57:43.222Z,29.43
2018-07-08T12:00:10.980Z,29.14
2018-07-08T12:02:38.719Z,28.59
2018-07-08T12:05:06.539Z,28.43
2018-07-08T12:07:34.218Z,28.50
2018-07-08T12:10:02.000Z,28.47
2018-07-08T12:12:29.746Z,28.43
2018-07-08T12:14:57.455Z,28.74
2018-07-08T12:17:25.205Z,28.81
2018-07-08T12:19:53.118Z,28.77
2018-07-08T12:22:20.807Z,28.69
2018-07-08T12:24:48.539Z,28.42
2018-07-08T12:27:16.263Z,28.00
2018-07-08T12:29:43.940Z,28.05
2018-07-08T12:32:11.699Z,27.95
2018-07-08T12:34:39.467Z,27.72
2018-07-08T12:37:07.506Z,27.87
2018-07-08T12:39:35.265Z,27.76
2018-07-08T12:42:03.033Z,27.57
2018-07-08T12:44:30.884Z,27.66
2018-07-08T12:46:59.107Z,27.43
2018-07-08T12:49:26.956Z,27.46
2018-07-08T12:51:54.937Z,27.30
2018-07-08T12:54:22.731Z,27.17
2018-07-08T12:56:50.495Z,27.07
2018-07-08T12:59:19.159Z,27.02
2018-07-08T13:01:47.283Z,26.83
2018-07-08T13:04:14.967Z,26.91
2018-07-08T13:06:42.693Z,26.90
2018-07-08T13:09:10.757Z,27.04
2018-07-08T13:11:38.538Z,26.89
2018-07-08T13:14:06.280Z,26.68
2018-07-08T13:16:34.044Z,26.33
2018-07-08T13:19:01.792Z,26.27
2018-07-08T13:21:29.472Z,26.14
2018-07-08T13:23:58.160Z,26.21
2018-07-08T13:26:26.416Z,26.13
2018-07-08T13:28:54.089Z,26.30
2018-07-08T13:31:21.810Z,26.31
2018-07-08T13:33:49.930Z,26.33
2018-07-08T13:36:17.676Z,26.37
2018-07-08T13:38:45.453Z,26.51
2018-07-08T13:41:13.122Z,26.40
2018-07-08T13:43:40.910Z,26.21
2018-07-08T13:46:08.670Z,26.20
2018-07-08T13:48:36.414Z,26.20
2018-07-08T13:51:04.150Z,26.22
2018-07-08T13:53:32.161Z,26.19
2018-07-08T13:55:59.927Z,25.94
2018-07-08T13:58:27.718Z,25.81
2018-07-08T14:00:55.473Z,25.81
2018-07-08T14:03:23.234Z,25.78
2018-07-08T14:05:50.957Z,25.94
2018-07-08T14:08:18.718Z,26.10
2018-07-08T14:10:46.514Z,26.30
2018-07-08T14:13:14.254Z,26.33
2018-07-08T14:15:41.994Z,26.46
2018-07-08T14:18:09.724Z,26.40
2018-07-08T14:20:37.547Z,26.25
2018-07-08T14:23:05.222Z,26.22
2018-07-08T14:25:33.057Z,26.15
2018-07-08T14:28:00.743Z,26.16
2018-07-08T14:30:28.471Z,26.11
2018-07-08T14:32:56.189Z,26.13
2018-07-08T14:35:23.895Z,26.08
2018-07-08T14:37:51.901Z,25.96
2018-07-08T14:40:19.601Z,25.85
2018-07-08T14:42:47.328Z,25.74
2018-07-08T14:45:15.101Z,25.93
2018-07-08T14:47:42.821Z,26.00
2018-07-08T14:50:10.647Z,25.84
2018-07-08T14:52:38.616Z,25.80
2018-07-08T14:55:06.362Z,25.88
2018-07-08T14:57:35.099Z,26.02
2018-07-08T15:00:03.791Z,25.87
2018-07-08T15:02:31.659Z,25.54
2018-07-08T15:04:59.389Z,25.38
2018-07-08T15:07:27.146Z,25.38
2018-07-08T15:09:55.097Z,25.29
2018-07-08T15:12:22.755Z,25.36
2018-07-08T15:14:50.563Z,25.38
2018-07-08T15:17:18.358Z,25.29
2018-07-08T15:19:46.063Z,25.22
2018-07-08T15:22:13.803Z,25.11
2018-07-08T15:24:41.523Z,25.18
2018-07-08T15:27:09.534Z,25.22
2018-07-08T15:29:37.247Z,25.28
2018-07-08T15:32:04.999Z,25.33
2018-07-08T15:34:32.664Z,25.34
2018-07-08T15:37:00.486Z,25.37
2018-07-08T15:39:28.726Z,25.33
2018-07-08T15:41:57.380Z,25.26
2018-07-08T15:44:25.865Z,25.18
2018-07-08T15:46:53.625Z,25.12
2018-07-08T15:49:21.469Z,25.02
2018-07-08T15:51:49.202Z,25.00
2018-07-08T15:54:16.926Z,24.98
2018-07-08T15:56:44.723Z,24.90
2018-07-08T15:59:12.526Z,25.03
2018-07-08T16:01:40.295Z,24.98
2018-07-08T16:04:08.118Z,24.97
2018-07-08T16:06:35.866Z,24.79
2018-07-08T16:09:04.323Z,24.80
2018-07-08T16:11:32.182Z,24.88
2018-07-08T16:14:00.029Z,24.83
2018-07-08T16:16:27.895Z,24.81
2018-07-08T16:18:55.753Z,24.82
2018-07-08T16:21:23.518Z,24.69
2018-07-08T16:23:51.291Z,24.66
2018-07-08T16:26:20.015Z,24.55
2018-07-08T16:28:47.830Z,24.51
2018-07-08T16:31:15.666Z,24.31
2018-07-08T16:33:43.678Z,24.15
2018-07-08T16:36:11.428Z,24.23
2018-07-08T16:38:39.118Z,24.12
2018-07-08T16:41:06.939Z,24.21
2018-07-08T16:43:34.762Z,24.36
2018-07-08T16:46:03.378Z,24.33
2018-07-08T16:48:31.139Z,24.37
2018-07-08T16:50:58.864Z,24.46
2018-07-08T16:53:26.573Z,24.44
2018-07-08T16:55:54.307Z,24.53
2018-07-08T16:58:22.723Z,24.42
2018-07-08T17:00:50.515Z,24.36
2018-07-08T17:03:18.326Z,24.28
2018-07-08T17:05:46.371Z,24.16
2018-07-08T17:08:14.116Z,24.05
2018-07-08T17:10:42.626Z,24.08
2018-07-08T17:13:10.430Z,24.04
2018-07-08T17:15:38.197Z,24.12
2018-07-08T17:18:06.039Z,24.00
2018-07-08T17:20:34.803Z,23.90
2018-07-08T17:23:02.593Z,23.94
2018-07-08T17:25:30.336Z,23.90
2018-07-08T17:27:58.035Z,23.91
2018-07-08T17:30:25.865Z,23.81
2018-07-08T17:32:53.580Z,23.81
2018-07-08T17:35:21.382Z,23.80
2018-07-08T17:37:49.821Z,23.62
2018-07-08T17:40:17.566Z,23.56
2018-07-08T17:42:45.400Z,23.60
2018-07-08T17:45:13.205Z,23.48
2018-07-08T17:47:40.935Z,23.60
2018-07-08T17:50:08.634Z,23.48
2018-07-08T17:52:36.479Z,23.37
2018-07-08T17:55:04.336Z,23.36
2018-07-08T17:57:32.147Z,23.39
2018-07-08T17:59:59.904Z,23.43
2018-07-08T18:02:27.664Z,23.38
2018-07-08T18:04:55.470Z,23.35
2018-07-08T18:07:23.309Z,23.31
2018-07-08T18:09:51.070Z,23.17
2018-07-08T18:12:18.816Z,23.06
2018-07-08T18:14:46.503Z,23.02
2018-07-08T18:17:14.346Z,23.12
2018-07-08T18:19:42.169Z,23.03
2018-07-08T18:22:09.922Z,23.02
2018-07-08T18:24:37.639Z,22.91
2018-07-08T18:27:05.455Z,22.90
2018-07-08T18:29:33.187Z,22.70
2018-07-08T18:32:00.955Z,22.74
2018-07-08T18:34:28.778Z,22.68
2018-07-08T18:36:56.622Z,22.63
2018-07-08T18:39:24.454Z,22.62
2018-07-08T18:41:52.222Z,22.61
2018-07-08T18:44:20.000Z,22.59
2018-07-08T18:46:47.790Z,22.57
2018-07-08T18:49:15.573Z,22.49
2018-07-08T18:51:43.331Z,22.48
2018-07-08T18:54:11.439Z,22.34
2018-07-08T18:56:39.206Z,22.22
2018-07-08T18:59:06.971Z,22.14
2018-07-08T19:01:34.812Z,22.16
2018-07-08T19:04:02.593Z,22.11
2018-07-08T19:06:30.407Z,22.06
2018-07-08T19:08:58.130Z,22.07
2018-07-08T19:11:25.842Z,21.99
2018-07-08T19:13:53.591Z,21.93
2018-07-08T19:16:21.323Z,21.95
2018-07-08T19:18:49.114Z,21.85
2018-07-08T19:21:16.823Z,21.83
2018-07-08T19:23:44.576Z,21.57
2018-07-08T19:26:12.348Z,21.65
2018-07-08T19:28:40.639Z,21.56
2018-07-08T19:31:08.413Z,21.61
2018-07-08T19:33:36.150Z,21.76
2018-07-08T19:36:03.931Z,21.47
2018-07-08T19:38:31.926Z,21.33
2018-07-08T19:40:59.704Z,21.55
2018-07-08T19:43:27.597Z,21.36
2018-07-08T19:45:55.389Z,21.22
2018-07-08T19:48:23.134Z,21.16
2018-07-08T19:50:50.910Z,21.17
2018-07-08T19:53:18.633Z,21.14
2018-07-08T19:55:46.470Z,21.10
2018-07-08T19:58:14.166Z,21.10
2018-07-08T20:00:41.911Z,21.02
2018-07-08T20:03:09.708Z,20.95
2018-07-08T20:05:38.128Z,21.05
2018-07-08T20:08:06.158Z,20.87
2018-07-08T20:10:33.910Z,20.88
2018-07-08T20:13:01.787Z,20.65
2018-07-08T20:15:29.525Z,20.58
2018-07-08T20:17:57.319Z,20.61
2018-07-08T20:20:25.061Z,20.43
2018-07-08T20:22:52.993Z,20.33
2018-07-08T20:25:20.741Z,20.18
2018-07-08T20:27:49.001Z,20.10
2018-07-08T20:30:21.841Z,20.04
2018-07-08T20:32:55.350Z,19.89
2018-07-08T20:35:23.263Z,19.74
2018-07-08T20:37:51.320Z,19.71
2018-07-08T20:40:19.145Z,19.65
2018-07-08T20:42:46.928Z,19.60
2018-07-08T20:45:14.694Z,19.56
2018-07-08T20:47:42.403Z,19.44
2018-07-08T20:50:10.130Z,19.49
2018-07-08T20:52:37.947Z,19.47
2018-07-08T20:55:05.732Z,19.30
2018-07-08T20:57:33.647Z,19.49
2018-07-08T21:00:01.358Z,19.33
2018-07-08T21:02:29.186Z,19.32
2018-07-08T21:04:57.237Z,19.08
2018-07-08T21:07:24.998Z,18.90
2018-07-08T21:09:52.766Z,18.72
2018-07-08T21:12:20.695Z,18.57
2018-07-08T21:14:48.462Z,18.52
2018-07-08T21:17:16.243Z,18.76
2018-07-08T21:19:43.995Z,18.67
2018-07-08T21:22:11.762Z,18.61
2018-07-08T21:24:40.321Z,18.35
2018-07-08T21:27:08.107Z,18.32
2018-07-08T21:29:35.841Z,18.16
2018-07-08T21:32:03.622Z,18.14
2018-07-08T21:34:31.423Z,18.18
2018-07-08T21:36:59.495Z,18.00
2018-07-08T21:39:27.134Z,17.69
2018-07-08T21:41:54.890Z,17.68
2018-07-08T21:44:22.614Z,17.68
2018-07-08T21:46:50.322Z,17.67
2018-07-08T21:49:18.073Z,17.60
2018-07-08T21:51:45.779Z,17.49
2018-07-08T21:54:13.554Z,17.53
2018-07-08T21:56:41.278Z,17.48
2018-07-08T21:59:09.150Z,17.54
2018-07-08T22:02:40.197Z,17.41
2018-07-08T22:05:07.906Z,17.37
2018-07-08T22:07:41.446Z,17.30
2018-07-08T22:10:09.227Z,17.34
2018-07-08T22:12:37.075Z,17.43
2018-07-08T22:15:05.448Z,17.16
2018-07-08T22:17:33.224Z,16.92
2018-07-08T22:20:00.915Z,16.96
2018-07-08T22:22:28.672Z,16.89
2018-07-08T22:24:56.401Z,16.79
2018-07-08T22:27:24.128Z,16.86
2018-07-08T22:29:51.919Z,16.88
2018-07-08T22:32:19.699Z,16.70
2018-07-08T22:34:47.444Z,16.95
2018-07-08T22:37:15.107Z,16.98
2018-07-08T22:39:42.872Z,16.83
2018-07-08T22:42:10.582Z,16.73
2018-07-08T22:44:38.381Z,16.73
2018-07-08T22:47:06.146Z,16.63
2018-07-08T22:49:33.951Z,16.61
2018-07-08T22:52:01.718Z,16.62
2018-07-08T22:54:29.409Z,16.70
2018-07-08T22:56:57.115Z,16.42
2018-07-08T22:59:24.888Z,16.37
2018-07-08T23:01:58.437Z,16.51
2018-07-08T23:04:26.165Z,16.33
2018-07-08T23:06:53.871Z,16.22
2018-07-08T23:09:21.606Z,16.16
2018-07-08T23:11:49.362Z,16.25
2018-07-08T23:14:17.061Z,16.06
2018-07-08T23:16:44.762Z,16.16
2018-07-08T23:19:13.051Z,15.99
2018-07-08T23:21:40.800Z,15.93
2018-07-08T23:24:08.498Z,16.12
2018-07-08T23:26:36.167Z,16.02
2018-07-08T23:29:03.949Z,15.69
2018-07-08T23:31:31.774Z,15.80
2018-07-08T23:33:59.582Z,15.80
2018-07-08T23:36:27.267Z,15.59
2018-07-08T23:38:54.968Z,15.56
2018-07-08T23:41:22.669Z,15.51
2018-07-08T23:43:50.954Z,15.31
2018-07-08T23:46:19.179Z,15.33
2018-07-08T23:48:46.923Z,15.35
2018-07-08T23:51:15.195Z,15.40
2018-07-08T23:53:42.949Z,15.37
2018-07-08T23:56:10.629Z,15.49
2018-07-08T23:58:38.316Z,15.39
